sensor_id;sensor_type;location;lat;lon;timestamp;pressure;altitude;pressure_sealevel;temperature;humidity
70141;BME280;57508;43.086;0.136;2022-08-19T00:01:38;96372.94;;;27.91;40.54
70141;BME280;57508;43.086;0.136;2022-08-19T00:04:07;96380.69;;;27.85;40.59
70141;BME280;57508;43.086;0.136;2022-08-19T00:06:34;96379.13;;;27.88;40.25
70141;BME280;57508;43.086;0.136;2022-08-19T00:09:00;96378.38;;;27.91;40.35
70141;BME280;57508;43.086;0.136;2022-08-19T00:11:27;96372.94;;;27.84;40.04
70141;BME280;57508;43.086;0.136;2022-08-19T00:13:56;96378.25;;;27.55;40.55
70141;BME280;57508;43.086;0.136;2022-08-19T00:16:23;96374.84;;;27.72;40.38
70141;BME280;57508;43.086;0.136;2022-08-19T00:18:48;96383.00;;;27.72;40.74
70141;BME280;57508;43.086;0.136;2022-08-19T00:21:14;96385.31;;;27.67;40.53
70141;BME280;57508;43.086;0.136;2022-08-19T00:23:41;96379.88;;;27.67;40.34
70141;BME280;57508;43.086;0.136;2022-08-19T00:26:09;96382.53;;;27.59;40.37
70141;BME280;57508;43.086;0.136;2022-08-19T00:28:35;96375.94;;;27.53;40.49
70141;BME280;57508;43.086;0.136;2022-08-19T00:31:02;96376.69;;;27.50;40.51
70141;BME280;57508;43.086;0.136;2022-08-19T00:33:29;96383.16;;;27.16;41.69
70141;BME280;57508;43.086;0.136;2022-08-19T00:35:58;96380.13;;;27.36;40.86
70141;BME280;57508;43.086;0.136;2022-08-19T00:38:23;96376.66;;;27.43;40.93
70141;BME280;57508;43.086;0.136;2022-08-19T00:40:49;96368.13;;;27.40;40.61
70141;BME280;57508;43.086;0.136;2022-08-19T00:43:19;96370.44;;;27.31;41.08
70141;BME280;57508;43.086;0.136;2022-08-19T00:45:45;96377.03;;;27.37;40.70
70141;BME280;57508;43.086;0.136;2022-08-19T00:48:11;96375.78;;;27.20;41.10
70141;BME280;57508;43.086;0.136;2022-08-19T00:50:39;96371.56;;;27.30;40.79
70141;BME280;57508;43.086;0.136;2022-08-19T00:53:09;96364.97;;;27.24;40.60
70141;BME280;57508;43.086;0.136;2022-08-19T00:55:35;96371.09;;;27.10;41.08
70141;BME280;57508;43.086;0.136;2022-08-19T00:58:07;96370.41;;;27.27;40.48
70141;BME280;57508;43.086;0.136;2022-08-19T01:00:33;96356.22;;;26.89;41.24
70141;BME280;57508;43.086;0.136;2022-08-19T01:03:05;96349.25;;;26.88;41.60
70141;BME280;57508;43.086;0.136;2022-08-19T01:05:31;96353.28;;;27.09;40.55
70141;BME280;57508;43.086;0.136;2022-08-19T01:07:59;96351.34;;;27.13;40.36
70141;BME280;57508;43.086;0.136;2022-08-19T01:10:27;96349.41;;;27.10;40.63
70141;BME280;57508;43.086;0.136;2022-08-19T01:12:55;96347.41;;;26.99;40.82
70141;BME280;57508;43.086;0.136;2022-08-19T01:15:23;96339.97;;;26.89;40.59
70141;BME280;57508;43.086;0.136;2022-08-19T01:17:52;96338.75;;;26.79;40.82
70141;BME280;57508;43.086;0.136;2022-08-19T01:20:21;96337.19;;;26.74;40.81
70141;BME280;57508;43.086;0.136;2022-08-19T01:22:53;96337.16;;;26.71;41.04
70141;BME280;57508;43.086;0.136;2022-08-19T01:25:25;96338.28;;;26.66;40.49
70141;BME280;57508;43.086;0.136;2022-08-19T01:27:52;96342.88;;;26.58;41.21
70141;BME280;57508;43.086;0.136;2022-08-19T01:30:35;96345.25;;;26.15;42.06
70141;BME280;57508;43.086;0.136;2022-08-19T01:33:02;96351.72;;;26.03;42.04
70141;BME280;57508;43.086;0.136;2022-08-19T01:35:30;96353.72;;;25.68;43.04
70141;BME280;57508;43.086;0.136;2022-08-19T01:38:00;96347.34;;;25.91;43.27
70141;BME280;57508;43.086;0.136;2022-08-19T01:40:30;96347.34;;;25.91;42.39
70141;BME280;57508;43.086;0.136;2022-08-19T01:42:56;96351.75;;;26.06;42.41
70141;BME280;57508;43.086;0.136;2022-08-19T01:45:24;96355.59;;;26.05;42.20
70141;BME280;57508;43.086;0.136;2022-08-19T01:47:50;96350.91;;;25.98;42.25
70141;BME280;57508;43.086;0.136;2022-08-19T01:50:15;96358.22;;;25.94;41.88
70141;BME280;57508;43.086;0.136;2022-08-19T01:52:42;96348.84;;;25.84;41.46
70141;BME280;57508;43.086;0.136;2022-08-19T01:55:12;96356.94;;;25.84;42.49
70141;BME280;57508;43.086;0.136;2022-08-19T01:57:40;96360.00;;;25.79;41.78
70141;BME280;57508;43.086;0.136;2022-08-19T02:00:10;96344.47;;;25.72;43.11
70141;BME280;57508;43.086;0.136;2022-08-19T02:02:36;96350.72;;;25.77;42.33
70141;BME280;57508;43.086;0.136;2022-08-19T02:05:02;96355.53;;;25.98;42.36
70141;BME280;57508;43.086;0.136;2022-08-19T02:07:28;96354.44;;;26.03;42.48
70141;BME280;57508;43.086;0.136;2022-08-19T02:09:54;96357.53;;;25.63;42.49
70141;BME280;57508;43.086;0.136;2022-08-19T02:12:20;96363.28;;;24.96;44.46
70141;BME280;57508;43.086;0.136;2022-08-19T02:14:46;96352.06;;;25.59;42.98
70141;BME280;57508;43.086;0.136;2022-08-19T02:17:11;96358.09;;;25.49;43.11
70141;BME280;57508;43.086;0.136;2022-08-19T02:19:37;96365.06;;;25.81;42.19
70141;BME280;57508;43.086;0.136;2022-08-19T02:22:02;96365.56;;;25.94;41.83
70141;BME280;57508;43.086;0.136;2022-08-19T02:24:28;96366.31;;;24.17;46.48
70141;BME280;57508;43.086;0.136;2022-08-19T02:26:53;96362.03;;;24.63;45.84
70141;BME280;57508;43.086;0.136;2022-08-19T02:29:19;96369.22;;;25.40;43.51
70141;BME280;57508;43.086;0.136;2022-08-19T02:31:44;96364.94;;;25.35;43.92
70141;BME280;57508;43.086;0.136;2022-08-19T02:34:10;96365.44;;;25.83;42.43
70141;BME280;57508;43.086;0.136;2022-08-19T02:36:35;96368.97;;;26.29;42.27
70141;BME280;57508;43.086;0.136;2022-08-19T02:39:01;96366.75;;;26.38;42.00
70141;BME280;57508;43.086;0.136;2022-08-19T02:41:30;96365.38;;;26.62;41.63
70141;BME280;57508;43.086;0.136;2022-08-19T02:43:57;96365.44;;;26.73;41.18
70141;BME280;57508;43.086;0.136;2022-08-19T02:46:28;96363.50;;;26.74;41.41
70141;BME280;57508;43.086;0.136;2022-08-19T02:48:56;96368.72;;;26.97;41.34
70141;BME280;57508;43.086;0.136;2022-08-19T02:51:25;96371.38;;;26.34;43.11
70141;BME280;57508;43.086;0.136;2022-08-19T02:53:51;96366.69;;;26.34;43.27
70141;BME280;57508;43.086;0.136;2022-08-19T02:56:17;96357.91;;;26.48;43.21
70141;BME280;57508;43.086;0.136;2022-08-19T02:58:43;96365.63;;;26.99;42.38
70141;BME280;57508;43.086;0.136;2022-08-19T03:01:10;96361.47;;;27.23;41.65
70141;BME280;57508;43.086;0.136;2022-08-19T03:03:37;96371.91;;;27.21;41.67
70141;BME280;57508;43.086;0.136;2022-08-19T03:06:14;96363.03;;;27.32;41.75
70141;BME280;57508;43.086;0.136;2022-08-19T03:08:42;96362.34;;;27.57;41.22
70141;BME280;57508;43.086;0.136;2022-08-19T03:11:23;96366.63;;;27.61;40.98
70141;BME280;57508;43.086;0.136;2022-08-19T03:13:49;96370.03;;;27.36;41.86
70141;BME280;57508;43.086;0.136;2022-08-19T03:16:17;96372.63;;;27.07;42.33
70141;BME280;57508;43.086;0.136;2022-08-19T03:18:43;96366.19;;;26.70;43.47
70141;BME280;57508;43.086;0.136;2022-08-19T03:21:10;96366.66;;;26.80;42.82
70141;BME280;57508;43.086;0.136;2022-08-19T03:23:39;96370.56;;;26.33;44.67
70141;BME280;57508;43.086;0.136;2022-08-19T03:26:05;96374.06;;;26.90;42.53
70141;BME280;57508;43.086;0.136;2022-08-19T03:28:32;96382.00;;;26.16;43.85
70141;BME280;57508;43.086;0.136;2022-08-19T03:31:01;96384.75;;;26.68;43.30
70141;BME280;57508;43.086;0.136;2022-08-19T03:33:27;96384.50;;;26.32;43.49
70141;BME280;57508;43.086;0.136;2022-08-19T03:36:10;96384.22;;;26.06;43.47
70141;BME280;57508;43.086;0.136;2022-08-19T03:38:38;96385.44;;;26.09;43.46
70141;BME280;57508;43.086;0.136;2022-08-19T03:41:09;96382.28;;;26.03;44.10
70141;BME280;57508;43.086;0.136;2022-08-19T03:43:37;96379.59;;;26.07;42.68
70141;BME280;57508;43.086;0.136;2022-08-19T03:46:11;96378.44;;;26.08;43.70
70141;BME280;57508;43.086;0.136;2022-08-19T03:48:38;96381.56;;;26.51;42.70
70141;BME280;57508;43.086;0.136;2022-08-19T03:51:05;96372.09;;;26.31;43.46
70141;BME280;57508;43.086;0.136;2022-08-19T03:53:32;96383.66;;;26.28;43.31
70141;BME280;57508;43.086;0.136;2022-08-19T03:55:58;96376.88;;;26.48;42.72
70141;BME280;57508;43.086;0.136;2022-08-19T03:58:26;96374.81;;;26.87;42.60
70141;BME280;57508;43.086;0.136;2022-08-19T04:00:55;96386.09;;;26.40;42.82
70141;BME280;57508;43.086;0.136;2022-08-19T04:03:20;96383.31;;;26.82;42.32
70141;BME280;57508;43.086;0.136;2022-08-19T04:05:46;96391.13;;;26.94;41.59
70141;BME280;57508;43.086;0.136;2022-08-19T04:08:12;96386.88;;;26.97;41.95
70141;BME280;57508;43.086;0.136;2022-08-19T04:10:38;96395.91;;;27.12;41.57
70141;BME280;57508;43.086;0.136;2022-08-19T04:13:04;96399.66;;;26.96;42.38
70141;BME280;57508;43.086;0.136;2022-08-19T04:15:31;96396.66;;;27.09;41.67
70141;BME280;57508;43.086;0.136;2022-08-19T04:18:01;96400.53;;;27.08;41.22
70141;BME280;57508;43.086;0.136;2022-08-19T04:20:26;96402.09;;;27.12;41.35
70141;BME280;57508;43.086;0.136;2022-08-19T04:22:52;96404.13;;;27.26;41.07
70141;BME280;57508;43.086;0.136;2022-08-19T04:25:17;96411.88;;;27.32;40.99
70141;BME280;57508;43.086;0.136;2022-08-19T04:27:43;96410.75;;;27.33;40.98
70141;BME280;57508;43.086;0.136;2022-08-19T04:30:12;96403.25;;;27.08;41.74
70141;BME280;57508;43.086;0.136;2022-08-19T04:32:38;96406.81;;;27.19;41.69
70141;BME280;57508;43.086;0.136;2022-08-19T04:35:04;96407.38;;;26.87;42.10
70141;BME280;57508;43.086;0.136;2022-08-19T04:37:29;96405.63;;;26.60;42.25
70141;BME280;57508;43.086;0.136;2022-08-19T04:39:57;96402.44;;;26.06;44.00
70141;BME280;57508;43.086;0.136;2022-08-19T04:42:40;96401.38;;;26.63;42.50
70141;BME280;57508;43.086;0.136;2022-08-19T04:45:12;96404.81;;;27.09;41.57
70141;BME280;57508;43.086;0.136;2022-08-19T04:47:43;96407.56;;;27.16;41.33
70141;BME280;57508;43.086;0.136;2022-08-19T04:50:09;96407.56;;;27.20;41.32
70141;BME280;57508;43.086;0.136;2022-08-19T04:52:36;96399.06;;;27.25;41.05
70141;BME280;57508;43.086;0.136;2022-08-19T04:55:02;96404.06;;;27.12;41.14
70141;BME280;57508;43.086;0.136;2022-08-19T04:57:28;96405.56;;;27.09;41.31
70141;BME280;57508;43.086;0.136;2022-08-19T04:59:55;96398.22;;;27.06;41.35
70141;BME280;57508;43.086;0.136;2022-08-19T05:02:21;96391.75;;;26.69;41.97
70141;BME280;57508;43.086;0.136;2022-08-19T05:04:50;96398.34;;;26.75;41.79
70141;BME280;57508;43.086;0.136;2022-08-19T05:07:15;96389.09;;;26.76;41.28
70141;BME280;57508;43.086;0.136;2022-08-19T05:09:41;96401.06;;;26.72;41.77
70141;BME280;57508;43.086;0.136;2022-08-19T05:12:07;96396.63;;;27.01;41.46
70141;BME280;57508;43.086;0.136;2022-08-19T05:14:33;96397.47;;;27.13;41.18
70141;BME280;57508;43.086;0.136;2022-08-19T05:17:00;96391.16;;;26.98;41.32
70141;BME280;57508;43.086;0.136;2022-08-19T05:19:26;96393.81;;;25.96;43.99
70141;BME280;57508;43.086;0.136;2022-08-19T05:22:10;96395.66;;;25.54;44.95
70141;BME280;57508;43.086;0.136;2022-08-19T05:24:54;96390.56;;;26.21;43.24
70141;BME280;57508;43.086;0.136;2022-08-19T05:27:20;96388.66;;;26.25;43.33
70141;BME280;57508;43.086;0.136;2022-08-19T05:29:45;96390.63;;;26.25;43.08
70141;BME280;57508;43.086;0.136;2022-08-19T05:32:11;96382.84;;;26.23;43.53
70141;BME280;57508;43.086;0.136;2022-08-19T05:34:37;96396.38;;;26.69;42.44
70141;BME280;57508;43.086;0.136;2022-08-19T05:37:04;96390.13;;;26.16;42.79
70141;BME280;57508;43.086;0.136;2022-08-19T05:39:32;96400.72;;;26.81;42.48
70141;BME280;57508;43.086;0.136;2022-08-19T05:42:02;96403.41;;;26.73;41.90
70141;BME280;57508;43.086;0.136;2022-08-19T05:44:31;96405.22;;;27.14;41.24
70141;BME280;57508;43.086;0.136;2022-08-19T05:46:58;96400.09;;;25.35;44.47
70141;BME280;57508;43.086;0.136;2022-08-19T05:49:26;96403.63;;;25.70;44.30
70141;BME280;57508;43.086;0.136;2022-08-19T05:51:52;96408.91;;;26.88;42.08
70141;BME280;57508;43.086;0.136;2022-08-19T05:54:19;96417.66;;;27.19;41.15
70141;BME280;57508;43.086;0.136;2022-08-19T05:56:45;96417.25;;;26.19;43.01
70141;BME280;57508;43.086;0.136;2022-08-19T05:59:14;96416.44;;;27.13;41.48
70141;BME280;57508;43.086;0.136;2022-08-19T06:01:43;96422.31;;;27.22;41.12
70141;BME280;57508;43.086;0.136;2022-08-19T06:04:09;96423.22;;;27.52;41.14
70141;BME280;57508;43.086;0.136;2022-08-19T06:06:35;96427.75;;;27.22;41.74
70141;BME280;57508;43.086;0.136;2022-08-19T06:09:03;96428.28;;;27.61;41.20
70141;BME280;57508;43.086;0.136;2022-08-19T06:14:10;96426.06;;;27.81;40.72
70141;BME280;57508;43.086;0.136;2022-08-19T06:16:38;96433.91;;;26.67;43.12
70141;BME280;57508;43.086;0.136;2022-08-19T06:19:10;96434.84;;;27.52;41.26
70141;BME280;57508;43.086;0.136;2022-08-19T06:21:38;96443.13;;;27.78;40.66
70141;BME280;57508;43.086;0.136;2022-08-19T06:24:07;96443.97;;;28.00;40.33
70141;BME280;57508;43.086;0.136;2022-08-19T06:26:35;96442.03;;;28.05;40.39
70141;BME280;57508;43.086;0.136;2022-08-19T06:29:03;96447.47;;;28.05;40.33
70141;BME280;57508;43.086;0.136;2022-08-19T06:31:29;96447.47;;;28.15;39.75
70141;BME280;57508;43.086;0.136;2022-08-19T06:33:56;96446.78;;;28.30;40.04
70141;BME280;57508;43.086;0.136;2022-08-19T06:36:29;96440.56;;;28.33;39.99
70141;BME280;57508;43.086;0.136;2022-08-19T06:39:08;96444.47;;;28.53;39.65
70141;BME280;57508;43.086;0.136;2022-08-19T06:41:37;96444.44;;;28.64;39.30
70141;BME280;57508;43.086;0.136;2022-08-19T06:44:03;96442.13;;;28.48;39.37
70141;BME280;57508;43.086;0.136;2022-08-19T06:46:28;96444.44;;;28.64;38.64
70141;BME280;57508;43.086;0.136;2022-08-19T06:48:56;96448.31;;;28.74;38.67
70141;BME280;57508;43.086;0.136;2022-08-19T06:51:21;96457.66;;;28.77;39.86
70141;BME280;57508;43.086;0.136;2022-08-19T06:53:48;96463.50;;;28.75;39.50
70141;BME280;57508;43.086;0.136;2022-08-19T06:56:16;96460.00;;;28.75;39.21
70141;BME280;57508;43.086;0.136;2022-08-19T06:58:42;96462.31;;;28.55;39.79
70141;BME280;57508;43.086;0.136;2022-08-19T07:01:08;96464.63;;;28.60;39.95
70141;BME280;57508;43.086;0.136;2022-08-19T07:03:35;96465.44;;;28.71;39.63
70141;BME280;57508;43.086;0.136;2022-08-19T07:06:05;96469.69;;;28.87;39.60
70141;BME280;57508;43.086;0.136;2022-08-19T07:08:32;96468.56;;;28.99;39.42
70141;BME280;57508;43.086;0.136;2022-08-19T07:10:57;96473.94;;;29.17;39.60
70141;BME280;57508;43.086;0.136;2022-08-19T07:13:24;96470.44;;;29.24;39.46
70141;BME280;57508;43.086;0.136;2022-08-19T07:15:49;96466.94;;;29.34;39.18
70141;BME280;57508;43.086;0.136;2022-08-19T07:18:19;96473.94;;;29.39;39.55
70141;BME280;57508;43.086;0.136;2022-08-19T07:20:46;96464.53;;;29.65;39.08
70141;BME280;57508;43.086;0.136;2022-08-19T07:23:12;96459.84;;;29.66;39.22
70141;BME280;57508;43.086;0.136;2022-08-19T07:25:38;96469.09;;;29.87;38.45
70141;BME280;57508;43.086;0.136;2022-08-19T07:28:04;96465.13;;;30.02;39.04
70141;BME280;57508;43.086;0.136;2022-08-19T07:30:30;96456.53;;;30.04;37.46
70141;BME280;57508;43.086;0.136;2022-08-19T07:32:56;96468.13;;;30.30;37.66
70141;BME280;57508;43.086;0.136;2022-08-19T07:35:22;96464.50;;;30.48;37.54
70141;BME280;57508;43.086;0.136;2022-08-19T07:37:49;96457.34;;;30.61;37.50
70141;BME280;57508;43.086;0.136;2022-08-19T07:40:14;96460.28;;;30.89;35.49
70141;BME280;57508;43.086;0.136;2022-08-19T07:42:40;96459.72;;;31.47;36.89
70141;BME280;57508;43.086;0.136;2022-08-19T07:45:07;96459.03;;;32.05;35.61
70141;BME280;57508;43.086;0.136;2022-08-19T07:47:33;96459.13;;;32.53;35.59
70141;BME280;57508;43.086;0.136;2022-08-19T07:49:58;96457.84;;;33.10;35.02
70141;BME280;57508;43.086;0.136;2022-08-19T07:52:23;96461.50;;;33.84;31.82
70141;BME280;57508;43.086;0.136;2022-08-19T07:54:49;96451.72;;;35.20;32.23
70141;BME280;57508;43.086;0.136;2022-08-19T07:57:15;96451.25;;;36.07;30.10
70141;BME280;57508;43.086;0.136;2022-08-19T07:59:41;96448.31;;;36.89;28.58
70141;BME280;57508;43.086;0.136;2022-08-19T08:02:07;96448.03;;;36.60;27.67
70141;BME280;57508;43.086;0.136;2022-08-19T08:04:33;96451.53;;;37.22;27.96
70141;BME280;57508;43.086;0.136;2022-08-19T08:07:17;96448.81;;;37.77;26.69
70141;BME280;57508;43.086;0.136;2022-08-19T08:10:04;96453.63;;;37.95;26.23
70141;BME280;57508;43.086;0.136;2022-08-19T08:12:35;96456.44;;;38.04;25.24
70141;BME280;57508;43.086;0.136;2022-08-19T08:15:05;96449.50;;;37.90;25.93
70141;BME280;57508;43.086;0.136;2022-08-19T08:17:33;96450.78;;;37.76;24.83
70141;BME280;57508;43.086;0.136;2022-08-19T08:19:58;96450.94;;;37.50;26.00
70141;BME280;57508;43.086;0.136;2022-08-19T08:22:25;96451.13;;;37.33;26.45
70141;BME280;57508;43.086;0.136;2022-08-19T08:25:15;96449.66;;;37.42;26.44
70141;BME280;57508;43.086;0.136;2022-08-19T08:27:44;96450.19;;;37.14;27.31
70141;BME280;57508;43.086;0.136;2022-08-19T08:30:12;96449.38;;;37.49;26.68
70141;BME280;57508;43.086;0.136;2022-08-19T08:32:40;96457.66;;;38.03;26.63
70141;BME280;57508;43.086;0.136;2022-08-19T08:35:08;96458.25;;;37.98;24.61
70141;BME280;57508;43.086;0.136;2022-08-19T08:37:34;96456.13;;;37.48;25.28
70141;BME280;57508;43.086;0.136;2022-08-19T08:40:07;96460.28;;;37.53;25.20
70141;BME280;57508;43.086;0.136;2022-08-19T08:42:37;96460.38;;;36.56;25.67
70141;BME280;57508;43.086;0.136;2022-08-19T08:45:09;96457.84;;;35.83;27.68
70141;BME280;57508;43.086;0.136;2022-08-19T08:47:43;96463.22;;;35.44;27.94
70141;BME280;57508;43.086;0.136;2022-08-19T08:50:21;96467.69;;;35.08;27.40
70141;BME280;57508;43.086;0.136;2022-08-19T08:52:52;96465.16;;;34.84;29.40
70141;BME280;57508;43.086;0.136;2022-08-19T08:55:24;96470.19;;;34.36;29.77
70141;BME280;57508;43.086;0.136;2022-08-19T08:57:55;96471.38;;;34.18;29.65
70141;BME280;57508;43.086;0.136;2022-08-19T09:00:29;96467.81;;;34.01;30.30
70141;BME280;57508;43.086;0.136;2022-08-19T09:02:56;96467.75;;;33.84;30.48
70141;BME280;57508;43.086;0.136;2022-08-19T09:05:23;96465.25;;;33.74;30.71
70141;BME280;57508;43.086;0.136;2022-08-19T09:10:44;96467.53;;;33.58;31.24
70141;BME280;57508;43.086;0.136;2022-08-19T09:15:52;96465.47;;;33.63;31.02
70141;BME280;57508;43.086;0.136;2022-08-19T09:18:19;96467.69;;;33.48;31.33
70141;BME280;57508;43.086;0.136;2022-08-19T09:20:45;96475.13;;;33.47;31.56
70141;BME280;57508;43.086;0.136;2022-08-19T09:23:12;96469.66;;;33.47;31.07
70141;BME280;57508;43.086;0.136;2022-08-19T09:25:38;96475.50;;;33.69;31.04
70141;BME280;57508;43.086;0.136;2022-08-19T09:28:06;96478.97;;;33.29;31.93
70141;BME280;57508;43.086;0.136;2022-08-19T09:30:40;96476.75;;;33.44;30.65
70141;BME280;57508;43.086;0.136;2022-08-19T09:33:06;96474.44;;;33.43;32.50
70141;BME280;57508;43.086;0.136;2022-08-19T09:35:33;96471.50;;;33.33;31.66
70141;BME280;57508;43.086;0.136;2022-08-19T09:37:59;96470.84;;;33.02;31.77
70141;BME280;57508;43.086;0.136;2022-08-19T09:40:27;96468.00;;;33.09;31.96
70141;BME280;57508;43.086;0.136;2022-08-19T09:42:53;96473.47;;;32.61;31.54
70141;BME280;57508;43.086;0.136;2022-08-19T09:45:21;96471.16;;;33.07;31.74
70141;BME280;57508;43.086;0.136;2022-08-19T09:47:47;96460.66;;;33.26;30.57
70141;BME280;57508;43.086;0.136;2022-08-19T09:50:14;96459.25;;;33.38;30.01
70141;BME280;57508;43.086;0.136;2022-08-19T09:52:39;96469.28;;;33.69;29.90
70141;BME280;57508;43.086;0.136;2022-08-19T09:55:09;96471.16;;;34.09;31.16
70141;BME280;57508;43.086;0.136;2022-08-19T09:57:35;96476.19;;;34.31;30.91
70141;BME280;57508;43.086;0.136;2022-08-19T10:00:02;96469.09;;;34.67;30.31
70141;BME280;57508;43.086;0.136;2022-08-19T10:02:28;96464.97;;;34.58;29.42
70141;BME280;57508;43.086;0.136;2022-08-19T10:04:54;96471.00;;;34.70;28.86
70141;BME280;57508;43.086;0.136;2022-08-19T10:07:38;96475.50;;;35.10;28.50
70141;BME280;57508;43.086;0.136;2022-08-19T10:10:05;96470.69;;;35.44;27.48
70141;BME280;57508;43.086;0.136;2022-08-19T10:12:32;96473.53;;;35.40;29.42
70141;BME280;57508;43.086;0.136;2022-08-19T10:14:58;96466.66;;;35.48;29.35
70141;BME280;57508;43.086;0.136;2022-08-19T10:17:23;96471.03;;;35.89;27.45
70141;BME280;57508;43.086;0.136;2022-08-19T10:19:50;96478.84;;;36.03;25.88
70141;BME280;57508;43.086;0.136;2022-08-19T10:22:18;96468.56;;;36.20;26.46
70141;BME280;57508;43.086;0.136;2022-08-19T10:24:44;96470.94;;;37.41;26.91
70141;BME280;57508;43.086;0.136;2022-08-19T10:27:10;96474.31;;;38.22;25.42
70141;BME280;57508;43.086;0.136;2022-08-19T10:29:35;96468.66;;;39.23;24.69
70141;BME280;57508;43.086;0.136;2022-08-19T10:32:03;96470.91;;;39.81;23.11
70141;BME280;57508;43.086;0.136;2022-08-19T10:34:31;96472.28;;;40.62;20.37
70141;BME280;57508;43.086;0.136;2022-08-19T10:36:57;96470.88;;;41.76;22.25
70141;BME280;57508;43.086;0.136;2022-08-19T10:39:23;96473.91;;;41.33;20.33
70141;BME280;57508;43.086;0.136;2022-08-19T10:41:48;96474.31;;;41.41;20.46
70141;BME280;57508;43.086;0.136;2022-08-19T10:44:13;96476.38;;;41.31;20.80
70141;BME280;57508;43.086;0.136;2022-08-19T10:46:42;96473.16;;;40.69;20.23
70141;BME280;57508;43.086;0.136;2022-08-19T10:49:10;96473.91;;;40.45;20.43
70141;BME280;57508;43.086;0.136;2022-08-19T10:51:38;96475.69;;;40.82;20.19
70141;BME280;57508;43.086;0.136;2022-08-19T10:54:22;96473.81;;;40.63;20.73
70141;BME280;57508;43.086;0.136;2022-08-19T10:56:48;96469.19;;;40.02;22.17
70141;BME280;57508;43.086;0.136;2022-08-19T10:59:24;96471.56;;;40.19;21.58
70141;BME280;57508;43.086;0.136;2022-08-19T11:01:53;96457.19;;;39.86;20.54
70141;BME280;57508;43.086;0.136;2022-08-19T11:04:19;96462.72;;;40.05;20.30
70141;BME280;57508;43.086;0.136;2022-08-19T11:06:46;96460.50;;;39.47;21.69
70141;BME280;57508;43.086;0.136;2022-08-19T11:09:14;96469.41;;;39.51;20.55
70141;BME280;57508;43.086;0.136;2022-08-19T11:11:40;96466.56;;;40.66;20.50
70141;BME280;57508;43.086;0.136;2022-08-19T11:14:08;96457.25;;;41.18;20.77
70141;BME280;57508;43.086;0.136;2022-08-19T11:16:35;96459.75;;;42.22;19.54
70141;BME280;57508;43.086;0.136;2022-08-19T11:19:01;96456.06;;;42.31;17.64
70141;BME280;57508;43.086;0.136;2022-08-19T11:21:33;96457.44;;;43.19;17.86
70141;BME280;57508;43.086;0.136;2022-08-19T11:24:02;96455.34;;;43.66;17.18
70141;BME280;57508;43.086;0.136;2022-08-19T11:26:30;96453.25;;;44.26;17.10
70141;BME280;57508;43.086;0.136;2022-08-19T11:28:56;96451.59;;;43.16;16.99
70141;BME280;57508;43.086;0.136;2022-08-19T11:31:25;96444.91;;;43.56;17.10
70141;BME280;57508;43.086;0.136;2022-08-19T11:33:51;96446.81;;;44.08;16.55
70141;BME280;57508;43.086;0.136;2022-08-19T11:36:19;96431.78;;;43.94;16.19
70141;BME280;57508;43.086;0.136;2022-08-19T11:38:46;96439.34;;;44.32;16.45
70141;BME280;57508;43.086;0.136;2022-08-19T11:41:14;96436.03;;;43.84;15.72
70141;BME280;57508;43.086;0.136;2022-08-19T11:43:40;96439.19;;;44.41;14.64
70141;BME280;57508;43.086;0.136;2022-08-19T11:46:07;96432.53;;;44.88;16.21
70141;BME280;57508;43.086;0.136;2022-08-19T11:48:34;96430.38;;;45.55;15.56
70141;BME280;57508;43.086;0.136;2022-08-19T11:51:04;96434.34;;;44.97;15.57
70141;BME280;57508;43.086;0.136;2022-08-19T11:53:31;96427.34;;;45.53;15.84
70141;BME280;57508;43.086;0.136;2022-08-19T11:55:57;96430.91;;;45.93;14.93
70141;BME280;57508;43.086;0.136;2022-08-19T11:58:22;96427.09;;;45.85;14.26
70141;BME280;57508;43.086;0.136;2022-08-19T12:00:47;96410.28;;;46.25;14.96
70141;BME280;57508;43.086;0.136;2022-08-19T12:03:14;96419.31;;;46.54;15.31
70141;BME280;57508;43.086;0.136;2022-08-19T12:05:40;96415.00;;;46.59;14.19
70141;BME280;57508;43.086;0.136;2022-08-19T12:08:06;96423.56;;;45.56;14.99
70141;BME280;57508;43.086;0.136;2022-08-19T12:10:32;96411.75;;;46.32;14.28
70141;BME280;57508;43.086;0.136;2022-08-19T12:12:57;96419.66;;;46.28;13.99
70141;BME280;57508;43.086;0.136;2022-08-19T12:15:23;96422.25;;;46.85;13.86
70141;BME280;57508;43.086;0.136;2022-08-19T12:17:48;96413.56;;;46.35;14.25
70141;BME280;57508;43.086;0.136;2022-08-19T12:20:14;96412.34;;;46.13;13.80
70141;BME280;57508;43.086;0.136;2022-08-19T12:22:42;96413.84;;;46.14;14.06
70141;BME280;57508;43.086;0.136;2022-08-19T12:25:10;96412.91;;;45.60;14.36
70141;BME280;57508;43.086;0.136;2022-08-19T12:27:36;96409.44;;;46.48;14.71
70141;BME280;57508;43.086;0.136;2022-08-19T12:30:03;96406.97;;;46.86;14.31
70141;BME280;57508;43.086;0.136;2022-08-19T12:32:29;96408.75;;;46.89;13.72
70141;BME280;57508;43.086;0.136;2022-08-19T12:34:55;96398.81;;;46.94;13.85
70141;BME280;57508;43.086;0.136;2022-08-19T12:37:20;96393.84;;;47.17;13.33
70141;BME280;57508;43.086;0.136;2022-08-19T12:39:46;96389.28;;;46.72;13.35
70141;BME280;57508;43.086;0.136;2022-08-19T12:42:13;96398.66;;;45.75;15.00
70141;BME280;57508;43.086;0.136;2022-08-19T12:44:40;96386.63;;;46.32;13.02
70141;BME280;57508;43.086;0.136;2022-08-19T12:47:07;96388.53;;;45.38;14.67
70141;BME280;57508;43.086;0.136;2022-08-19T12:49:33;96383.44;;;45.88;13.78
70141;BME280;57508;43.086;0.136;2022-08-19T12:52:00;96384.06;;;46.46;13.92
70141;BME280;57508;43.086;0.136;2022-08-19T12:54:26;96380.63;;;46.05;13.16
70141;BME280;57508;43.086;0.136;2022-08-19T12:56:52;96379.75;;;46.39;13.36
70141;BME280;57508;43.086;0.136;2022-08-19T12:59:17;96368.56;;;46.44;13.20
70141;BME280;57508;43.086;0.136;2022-08-19T13:01:44;96369.22;;;46.74;13.21
70141;BME280;57508;43.086;0.136;2022-08-19T13:04:09;96371.00;;;47.75;13.38
70141;BME280;57508;43.086;0.136;2022-08-19T13:06:36;96376.59;;;47.13;13.64
70141;BME280;57508;43.086;0.136;2022-08-19T13:09:03;96368.19;;;47.50;12.77
70141;BME280;57508;43.086;0.136;2022-08-19T13:11:29;96365.41;;;47.13;14.03